createdAt,value
2017-12-19T00:01:01.727Z,2.70
2017-12-19T00:03:29.211Z,2.70
2017-12-19T00:05:56.684Z,2.70
2017-12-19T00:08:24.978Z,2.70
2017-12-19T00:10:53.204Z,2.70
2017-12-19T00:13:20.672Z,2.70
2017-12-19T00:15:48.146Z,2.70
2017-12-19T00:18:15.621Z,2.70
2017-12-19T00:20:43.082Z,2.70
2017-12-19T00:23:10.556Z,2.70
2017-12-19T00:25:38.017Z,2.70
2017-12-19T00:28:05.495Z,2.70
2017-12-19T00:30:33.731Z,2.70
2017-12-19T00:33:02.209Z,2.70
2017-12-19T00:35:29.684Z,2.70
2017-12-19T00:37:57.141Z,2.70
2017-12-19T00:40:24.629Z,2.70
2017-12-19T00:42:52.108Z,2.70
2017-12-19T00:45:19.583Z,2.70
2017-12-19T00:47:47.820Z,2.70
2017-12-19T00:50:15.301Z,2.70
2017-12-19T00:52:42.768Z,2.80
2017-12-19T00:55:10.254Z,2.80
2017-12-19T00:57:37.725Z,2.80
2017-12-19T01:00:05.197Z,2.80
2017-12-19T01:02:32.671Z,2.90
2017-12-19T01:05:00.147Z,2.80
2017-12-19T01:07:27.684Z,2.90
2017-12-19T01:09:55.154Z,2.80
2017-12-19T01:12:22.621Z,2.80
2017-12-19T01:14:50.096Z,2.80
2017-12-19T01:17:17.566Z,2.90
2017-12-19T01:19:45.029Z,2.90
2017-12-19T01:22:12.507Z,2.90
2017-12-19T01:24:39.980Z,2.90
2017-12-19T01:27:07.441Z,2.90
2017-12-19T01:29:34.919Z,2.90
2017-12-19T01:32:03.159Z,2.80
2017-12-19T01:34:30.647Z,2.80
2017-12-19T01:36:58.104Z,2.80
2017-12-19T01:39:25.581Z,2.80
2017-12-19T01:41:53.826Z,2.80
2017-12-19T01:44:22.115Z,2.80
2017-12-19T01:46:49.586Z,2.80
2017-12-19T01:49:17.116Z,2.80
2017-12-19T01:51:44.579Z,2.80
2017-12-19T01:54:12.048Z,2.80
2017-12-19T01:56:39.526Z,2.80
2017-12-19T01:59:06.989Z,2.80
2017-12-19T02:01:34.466Z,2.80
2017-12-19T02:04:01.944Z,2.80
2017-12-19T02:06:29.424Z,2.80
2017-12-19T02:08:57.660Z,2.80
2017-12-19T02:11:25.144Z,2.80
2017-12-19T02:13:52.623Z,2.80
2017-12-19T02:16:20.865Z,2.80
2017-12-19T02:18:48.330Z,2.80
2017-12-19T02:21:15.816Z,2.80
2017-12-19T02:23:43.279Z,2.80
2017-12-19T02:26:11.521Z,2.80
2017-12-19T02:28:38.983Z,2.80
2017-12-19T02:31:06.447Z,2.80
2017-12-19T02:33:33.910Z,2.80
2017-12-19T02:36:01.389Z,2.80
2017-12-19T02:38:28.874Z,2.80
2017-12-19T02:40:57.114Z,2.80
2017-12-19T02:43:24.572Z,2.80
2017-12-19T02:45:53.613Z,2.80
2017-12-19T02:48:21.064Z,2.90
2017-12-19T02:50:48.548Z,2.80
2017-12-19T02:53:16.790Z,2.90
2017-12-19T02:55:44.263Z,2.80
2017-12-19T02:58:11.738Z,2.90
2017-12-19T03:00:39.209Z,2.80
2017-12-19T03:03:06.683Z,2.80
2017-12-19T03:05:34.159Z,2.80
2017-12-19T03:08:01.631Z,2.90
2017-12-19T03:10:29.108Z,2.80
2017-12-19T03:12:56.587Z,2.80
2017-12-19T03:15:24.059Z,2.90
2017-12-19T03:17:53.086Z,2.80
2017-12-19T03:20:20.555Z,2.80
2017-12-19T03:22:48.042Z,2.80
2017-12-19T03:25:15.510Z,2.80
2017-12-19T03:27:43.009Z,2.80
2017-12-19T03:30:11.239Z,2.80
2017-12-19T03:32:38.711Z,2.80
2017-12-19T03:35:06.185Z,2.80
2017-12-19T03:37:33.673Z,2.80
2017-12-19T03:40:01.140Z,2.80
2017-12-19T03:42:29.385Z,2.80
2017-12-19T03:44:56.860Z,2.80
2017-12-19T03:47:24.360Z,2.80
2017-12-19T03:49:51.841Z,2.80
2017-12-19T03:52:19.336Z,2.80
2017-12-19T03:54:46.801Z,2.80
2017-12-19T03:57:14.275Z,2.80
2017-12-19T03:59:41.731Z,2.80
2017-12-19T04:04:43.191Z,2.80
2017-12-19T04:07:10.691Z,2.80
2017-12-19T04:09:38.926Z,2.80
2017-12-19T04:12:06.402Z,2.70
2017-12-19T04:14:33.883Z,2.80
2017-12-19T04:17:01.344Z,2.80
2017-12-19T04:19:28.817Z,2.80
2017-12-19T04:21:56.286Z,2.70
2017-12-19T04:24:24.536Z,2.80
2017-12-19T04:26:52.017Z,2.80
2017-12-19T04:29:19.486Z,2.80
2017-12-19T04:31:46.960Z,2.80
2017-12-19T04:34:15.200Z,2.80
2017-12-19T04:36:42.670Z,2.80
2017-12-19T04:39:10.145Z,2.80
2017-12-19T04:41:37.625Z,2.80
2017-12-19T04:44:05.109Z,2.80
2017-12-19T04:46:32.571Z,2.80
2017-12-19T04:49:00.063Z,2.80
2017-12-19T04:51:27.529Z,2.80
2017-12-19T04:53:55.010Z,2.70
2017-12-19T04:56:22.479Z,2.70
2017-12-19T04:58:49.970Z,2.70
2017-12-19T05:01:18.203Z,2.70
2017-12-19T05:03:45.684Z,2.70
2017-12-19T05:06:13.149Z,2.70
2017-12-19T05:08:40.640Z,2.70
2017-12-19T05:11:08.883Z,2.70
2017-12-19T05:13:36.362Z,2.70
2017-12-19T05:16:03.825Z,2.80
2017-12-19T05:18:31.315Z,2.80
2017-12-19T05:20:58.784Z,2.70
2017-12-19T05:23:26.253Z,2.80
2017-12-19T05:25:53.724Z,2.80
2017-12-19T05:28:21.197Z,2.70
2017-12-19T05:30:48.675Z,2.80
2017-12-19T05:33:16.157Z,2.80
2017-12-19T05:35:43.625Z,2.80
2017-12-19T05:38:11.114Z,2.80
2017-12-19T05:40:39.365Z,2.80
2017-12-19T05:43:06.823Z,2.80
2017-12-19T05:45:34.320Z,2.80
2017-12-19T05:48:02.562Z,2.80
2017-12-19T05:50:30.046Z,2.80
2017-12-19T05:52:58.279Z,2.80
2017-12-19T05:55:25.766Z,2.80
2017-12-19T05:57:53.234Z,2.80
2017-12-19T06:00:20.727Z,2.80
2017-12-19T06:02:48.956Z,2.80
2017-12-19T06:05:16.430Z,2.80
2017-12-19T06:07:43.908Z,2.80
2017-12-19T06:10:11.397Z,2.80
2017-12-19T06:12:39.643Z,2.80
2017-12-19T06:15:07.110Z,2.80
2017-12-19T06:17:34.603Z,2.80
2017-12-19T06:20:02.844Z,2.80
2017-12-19T06:22:30.310Z,2.80
2017-12-19T06:24:57.787Z,2.80
2017-12-19T06:27:25.253Z,2.80
2017-12-19T06:29:53.522Z,2.80
2017-12-19T06:32:20.983Z,2.80
2017-12-19T06:34:49.417Z,2.80
2017-12-19T06:37:16.903Z,2.80
2017-12-19T06:39:44.371Z,2.80
2017-12-19T06:42:11.846Z,2.80
2017-12-19T06:44:39.309Z,2.90
2017-12-19T06:47:06.789Z,2.80
2017-12-19T06:49:34.246Z,2.80
2017-12-19T06:52:01.722Z,2.80
2017-12-19T06:54:29.967Z,2.80
2017-12-19T06:56:57.441Z,2.80
2017-12-19T06:59:24.913Z,2.80
2017-12-19T07:01:52.406Z,2.80
2017-12-19T07:04:20.648Z,2.80
2017-12-19T07:06:48.118Z,2.80
2017-12-19T07:09:15.589Z,2.80
2017-12-19T07:11:43.830Z,2.70
2017-12-19T07:14:11.292Z,2.70
2017-12-19T07:16:38.767Z,2.70
2017-12-19T07:19:06.230Z,2.70
2017-12-19T07:21:33.711Z,2.70
2017-12-19T07:24:01.189Z,2.70
2017-12-19T07:26:29.435Z,2.80
2017-12-19T07:28:56.914Z,2.70
2017-12-19T07:31:24.384Z,2.70
2017-12-19T07:33:51.844Z,2.70
2017-12-19T07:36:19.312Z,2.70
2017-12-19T07:38:46.790Z,2.70
2017-12-19T07:41:16.034Z,2.70
2017-12-19T07:43:43.487Z,2.70
2017-12-19T07:46:10.973Z,2.70
2017-12-19T07:48:38.450Z,2.70
2017-12-19T07:51:05.917Z,2.70
2017-12-19T07:53:33.381Z,2.70
2017-12-19T07:56:00.844Z,2.70
2017-12-19T07:58:28.329Z,2.70
2017-12-19T08:00:56.569Z,2.70
2017-12-19T08:03:24.062Z,2.70
2017-12-19T08:05:51.537Z,2.80
2017-12-19T08:08:19.778Z,2.70
2017-12-19T08:10:47.237Z,2.70
2017-12-19T08:13:14.709Z,2.80
2017-12-19T08:15:42.177Z,2.80
2017-12-19T08:18:09.651Z,2.80
2017-12-19T08:20:37.139Z,2.80
2017-12-19T08:23:05.421Z,2.80
2017-12-19T08:25:33.658Z,2.80
2017-12-19T08:28:01.209Z,2.70
2017-12-19T08:30:28.700Z,2.70
2017-12-19T08:32:56.178Z,2.80
2017-12-19T08:35:24.409Z,2.80
2017-12-19T08:37:51.894Z,2.80
2017-12-19T08:40:19.362Z,2.80
2017-12-19T08:42:46.850Z,2.80
2017-12-19T08:45:15.094Z,2.80
2017-12-19T08:47:42.593Z,2.80
2017-12-19T08:50:10.833Z,2.80
2017-12-19T08:52:38.307Z,2.80
2017-12-19T08:55:05.776Z,2.80
2017-12-19T08:57:33.268Z,2.80
2017-12-19T09:00:01.507Z,2.90
2017-12-19T09:02:28.979Z,2.80
2017-12-19T09:04:56.454Z,2.90
2017-12-19T09:07:23.929Z,2.90
2017-12-19T09:09:52.164Z,2.90
2017-12-19T09:12:19.629Z,2.90
2017-12-19T09:14:47.101Z,3.00
2017-12-19T09:17:14.569Z,3.00
2017-12-19T09:19:42.055Z,3.00
2017-12-19T09:22:10.295Z,3.00
2017-12-19T09:24:37.779Z,3.00
2017-12-19T09:27:05.273Z,3.00
2017-12-19T09:29:32.758Z,3.00
2017-12-19T09:32:00.225Z,3.10
2017-12-19T09:34:27.707Z,3.10
2017-12-19T09:36:55.176Z,3.10
2017-12-19T09:39:22.656Z,3.10
2017-12-19T09:41:50.122Z,3.00
2017-12-19T09:44:17.635Z,3.00
2017-12-19T09:46:45.117Z,3.10
2017-12-19T09:49:12.581Z,3.10
2017-12-19T09:51:40.061Z,3.10
2017-12-19T09:54:07.529Z,3.10
2017-12-19T09:56:34.994Z,3.10
2017-12-19T09:59:02.483Z,3.00
2017-12-19T10:01:30.721Z,3.00
2017-12-19T10:03:58.209Z,3.00
2017-12-19T10:06:25.685Z,3.00
2017-12-19T10:08:53.921Z,3.10
2017-12-19T10:11:21.404Z,3.10
2017-12-19T10:13:48.875Z,3.10
2017-12-19T10:16:16.351Z,3.10
2017-12-19T10:18:49.116Z,3.10
2017-12-19T10:21:16.621Z,3.10
2017-12-19T10:23:44.095Z,3.10
2017-12-19T10:26:11.578Z,3.10
2017-12-19T10:28:39.042Z,3.20
2017-12-19T10:31:06.522Z,3.20
2017-12-19T10:33:33.985Z,3.20
2017-12-19T10:36:01.450Z,3.20
2017-12-19T10:38:28.939Z,3.20
2017-12-19T10:40:57.192Z,3.20
2017-12-19T10:43:24.699Z,3.20
2017-12-19T10:45:52.176Z,3.20
2017-12-19T10:48:19.645Z,3.20
2017-12-19T10:50:47.123Z,3.20
2017-12-19T10:53:14.593Z,3.20
2017-12-19T10:55:42.060Z,3.20
2017-12-19T10:58:09.539Z,3.10
2017-12-19T11:00:37.029Z,3.20
2017-12-19T11:03:05.260Z,3.20
2017-12-19T11:05:32.750Z,3.20
2017-12-19T11:08:00.210Z,3.10
2017-12-19T11:10:27.930Z,3.20
2017-12-19T11:12:55.900Z,3.20
2017-12-19T11:15:23.373Z,3.10
2017-12-19T11:17:50.842Z,3.10
2017-12-19T11:20:18.305Z,3.10
2017-12-19T11:22:45.780Z,3.10
2017-12-19T11:25:13.273Z,3.10
2017-12-19T11:27:40.744Z,3.10
2017-12-19T11:30:08.977Z,3.10
2017-12-19T11:32:36.454Z,3.10
2017-12-19T11:35:03.929Z,3.10
2017-12-19T11:37:31.419Z,3.10
2017-12-19T11:39:59.653Z,3.10
2017-12-19T11:42:27.141Z,3.10
2017-12-19T11:44:54.623Z,3.10
2017-12-19T11:47:22.868Z,3.20
2017-12-19T11:49:50.344Z,3.20
2017-12-19T11:52:18.778Z,3.20
2017-12-19T11:54:46.260Z,3.10
2017-12-19T11:57:13.735Z,3.20
2017-12-19T11:59:41.258Z,3.20
2017-12-19T12:02:08.765Z,3.20
2017-12-19T12:04:36.237Z,3.20
2017-12-19T12:07:03.726Z,3.20
2017-12-19T12:09:31.965Z,3.20
2017-12-19T12:11:59.460Z,3.20
2017-12-19T12:14:27.790Z,3.20
2017-12-19T12:16:55.266Z,3.20
2017-12-19T12:19:22.729Z,3.20
2017-12-19T12:21:50.203Z,3.20
2017-12-19T12:24:17.682Z,3.20
2017-12-19T12:26:45.164Z,3.20
2017-12-19T12:29:13.402Z,3.20
2017-12-19T12:31:40.877Z,3.20
2017-12-19T12:34:08.342Z,3.20
2017-12-19T12:36:35.821Z,3.20
2017-12-19T12:39:04.059Z,3.20
2017-12-19T12:41:31.543Z,3.20
2017-12-19T12:43:59.013Z,3.20
2017-12-19T12:46:26.498Z,3.20
2017-12-19T12:48:54.746Z,3.20
2017-12-19T12:51:22.212Z,3.20
2017-12-19T12:53:49.701Z,3.20
2017-12-19T12:56:17.930Z,3.20
2017-12-19T12:58:45.424Z,3.20
2017-12-19T13:01:12.891Z,3.20
2017-12-19T13:03:40.374Z,3.20
2017-12-19T13:06:08.610Z,3.30
2017-12-19T13:08:36.093Z,3.30
2017-12-19T13:11:03.551Z,3.30
2017-12-19T13:13:31.026Z,3.30
2017-12-19T13:15:58.507Z,3.40
2017-12-19T13:18:26.739Z,3.50
2017-12-19T13:20:54.209Z,3.50
2017-12-19T13:23:22.673Z,3.50
2017-12-19T13:25:50.889Z,3.50
2017-12-19T13:28:18.361Z,3.50
2017-12-19T13:30:45.826Z,3.50
2017-12-19T13:33:14.071Z,3.60
2017-12-19T13:35:41.550Z,3.60
2017-12-19T13:38:09.036Z,3.60
2017-12-19T13:40:37.280Z,3.60
2017-12-19T13:43:04.758Z,3.60
2017-12-19T13:45:32.237Z,3.60
2017-12-19T13:47:59.704Z,3.60
2017-12-19T13:50:27.946Z,3.60
2017-12-19T13:52:55.416Z,3.60
2017-12-19T13:55:22.895Z,3.60
2017-12-19T13:57:50.369Z,3.60
2017-12-19T14:00:18.630Z,3.60
2017-12-19T14:02:46.100Z,3.50
2017-12-19T14:05:13.764Z,3.50
2017-12-19T14:07:41.241Z,3.60
2017-12-19T14:10:09.477Z,3.60
2017-12-19T14:12:36.952Z,3.60
2017-12-19T14:15:04.464Z,3.70
2017-12-19T14:17:32.692Z,3.70
2017-12-19T14:20:00.162Z,3.70
2017-12-19T14:22:27.629Z,3.80
2017-12-19T14:24:55.110Z,3.70
2017-12-19T14:27:22.581Z,3.70
2017-12-19T14:29:50.827Z,3.70
2017-12-19T14:32:18.299Z,3.70
2017-12-19T14:34:45.765Z,3.70
2017-12-19T14:37:13.264Z,3.70
2017-12-19T14:39:41.495Z,3.70
2017-12-19T14:42:08.962Z,3.70
2017-12-19T14:44:36.441Z,3.70
2017-12-19T14:47:03.913Z,3.70
2017-12-19T14:49:32.143Z,3.80
2017-12-19T14:51:59.619Z,3.80
2017-12-19T14:54:27.083Z,3.80
2017-12-19T14:56:54.567Z,3.80
2017-12-19T14:59:22.086Z,3.70
2017-12-19T15:01:49.520Z,3.70
2017-12-19T15:04:17.749Z,3.70
2017-12-19T15:06:45.230Z,3.70
2017-12-19T15:09:12.697Z,3.70
2017-12-19T15:11:40.757Z,3.70
2017-12-19T15:14:08.237Z,3.60
2017-12-19T15:16:35.735Z,3.60
2017-12-19T15:19:03.972Z,3.60
2017-12-19T15:21:31.778Z,3.60
2017-12-19T15:24:00.006Z,3.60
2017-12-19T15:26:28.297Z,3.60
2017-12-19T15:28:55.768Z,3.60
2017-12-19T15:31:23.269Z,3.60
2017-12-19T15:33:50.744Z,3.60
2017-12-19T15:36:18.232Z,3.60
2017-12-19T15:38:45.706Z,3.60
2017-12-19T15:41:13.174Z,3.60
2017-12-19T15:43:40.661Z,3.60
2017-12-19T15:46:08.140Z,3.60
2017-12-19T15:48:36.384Z,3.60
2017-12-19T15:51:03.849Z,3.60
2017-12-19T15:53:31.321Z,3.60
2017-12-19T15:55:58.789Z,3.60
2017-12-19T15:58:26.261Z,3.60
2017-12-19T16:00:54.498Z,3.60
2017-12-19T16:03:21.970Z,3.50
2017-12-19T16:05:49.436Z,3.60
2017-12-19T16:08:16.912Z,3.60
2017-12-19T16:10:44.381Z,3.60
2017-12-19T16:13:11.862Z,3.60
2017-12-19T16:15:40.098Z,3.60
2017-12-19T16:18:07.569Z,3.60
2017-12-19T16:20:35.049Z,3.60
2017-12-19T16:23:03.303Z,3.60
2017-12-19T16:25:30.761Z,3.60
2017-12-19T16:27:58.249Z,3.60
2017-12-19T16:30:25.730Z,3.60
2017-12-19T16:32:53.238Z,3.60
2017-12-19T16:35:20.666Z,3.60
2017-12-19T16:37:48.970Z,3.60
2017-12-19T16:40:16.381Z,3.60
2017-12-19T16:42:43.859Z,3.60
2017-12-19T16:45:12.101Z,3.60
2017-12-19T16:47:39.561Z,3.60
2017-12-19T16:50:07.034Z,3.60
2017-12-19T16:52:34.548Z,3.60
2017-12-19T16:55:02.783Z,3.60
2017-12-19T16:57:30.264Z,3.60
2017-12-19T16:59:57.732Z,3.60
2017-12-19T17:02:25.974Z,3.60
2017-12-19T17:04:53.448Z,3.60
2017-12-19T17:07:20.924Z,3.60
2017-12-19T17:09:48.404Z,3.60
2017-12-19T17:12:16.645Z,3.60
2017-12-19T17:14:44.114Z,3.60
2017-12-19T17:17:11.586Z,3.60
2017-12-19T17:19:39.076Z,3.60
2017-12-19T17:22:07.351Z,3.60
2017-12-19T17:24:34.829Z,3.60
2017-12-19T17:27:02.308Z,3.50
2017-12-19T17:29:29.774Z,3.50
2017-12-19T17:31:57.257Z,3.50
2017-12-19T17:34:24.730Z,3.50
2017-12-19T17:36:52.212Z,3.50
2017-12-19T17:39:19.728Z,3.50
2017-12-19T17:41:47.196Z,3.50
2017-12-19T17:44:14.695Z,3.50
2017-12-19T17:46:42.228Z,3.50
2017-12-19T17:49:09.697Z,3.50
2017-12-19T17:51:37.207Z,3.50
2017-12-19T17:54:05.484Z,3.40
2017-12-19T17:56:33.734Z,3.40
2017-12-19T17:59:01.218Z,3.40
2017-12-19T18:01:28.751Z,3.40
2017-12-19T18:03:56.243Z,3.40
2017-12-19T18:06:23.707Z,3.40
2017-12-19T18:08:51.192Z,3.40
2017-12-19T18:11:19.473Z,3.40
2017-12-19T18:13:47.758Z,3.40
2017-12-19T18:16:16.033Z,3.40
2017-12-19T18:18:44.237Z,3.40
2017-12-19T18:21:11.721Z,3.40
2017-12-19T18:23:39.194Z,3.50
2017-12-19T18:26:06.730Z,3.50
2017-12-19T18:28:34.243Z,3.50
2017-12-19T18:31:01.772Z,3.40
2017-12-19T18:33:29.290Z,3.40
2017-12-19T18:35:57.526Z,3.40
2017-12-19T18:38:25.002Z,3.40
2017-12-19T18:40:52.467Z,3.40
2017-12-19T18:43:20.004Z,3.40
2017-12-19T18:45:47.519Z,3.40
2017-12-19T18:48:15.036Z,3.40
2017-12-19T18:50:42.500Z,3.50
2017-12-19T18:53:09.975Z,3.40
2017-12-19T18:55:37.491Z,3.40
2017-12-19T18:58:04.968Z,3.40
2017-12-19T19:00:32.475Z,3.50
2017-12-19T19:02:59.992Z,3.40
2017-12-19T19:05:27.456Z,3.40
2017-12-19T19:07:54.974Z,3.40
2017-12-19T19:10:22.431Z,3.40
2017-12-19T19:12:49.972Z,3.40
2017-12-19T19:15:17.476Z,3.40
2017-12-19T19:17:44.994Z,3.50
2017-12-19T19:20:12.508Z,3.50
2017-12-19T19:22:40.810Z,3.50
2017-12-19T19:25:08.283Z,3.50
2017-12-19T19:27:35.818Z,3.50
2017-12-19T19:30:04.088Z,3.50
2017-12-19T19:32:31.554Z,3.40
2017-12-19T19:34:59.798Z,3.50
2017-12-19T19:37:27.326Z,3.50
2017-12-19T19:39:54.843Z,3.50
2017-12-19T19:42:22.361Z,3.50
2017-12-19T19:44:49.828Z,3.50
2017-12-19T19:47:17.299Z,3.50
2017-12-19T19:49:44.822Z,3.50
2017-12-19T19:52:13.121Z,3.50
2017-12-19T19:54:40.645Z,3.50
2017-12-19T19:57:08.160Z,3.50
2017-12-19T19:59:35.684Z,3.50
2017-12-19T20:02:03.208Z,3.50
2017-12-19T20:04:30.733Z,3.50
2017-12-19T20:06:58.257Z,3.50
2017-12-19T20:09:25.776Z,3.50
2017-12-19T20:11:53.312Z,3.50
2017-12-19T20:14:21.602Z,3.50
2017-12-19T20:16:49.882Z,3.50
2017-12-19T20:19:18.157Z,3.50
2017-12-19T20:21:46.452Z,3.50
2017-12-19T20:24:13.983Z,3.50
2017-12-19T20:26:41.494Z,3.50
2017-12-19T20:29:09.022Z,3.50
2017-12-19T20:31:36.482Z,3.50
2017-12-19T20:34:04.766Z,3.50
2017-12-19T20:36:33.056Z,3.50
2017-12-19T20:39:01.354Z,3.50
2017-12-19T20:41:28.872Z,3.50
2017-12-19T20:43:56.398Z,3.50
2017-12-19T20:46:23.919Z,3.50
2017-12-19T20:48:52.234Z,3.50
2017-12-19T20:51:19.739Z,3.50
2017-12-19T20:53:47.208Z,3.50
2017-12-19T20:56:14.723Z,3.50
2017-12-19T20:58:42.241Z,3.50
2017-12-19T21:01:09.765Z,3.50
2017-12-19T21:03:37.267Z,3.50
2017-12-19T21:06:04.792Z,3.40
2017-12-19T21:08:32.303Z,3.50
2017-12-19T21:11:00.598Z,3.50
2017-12-19T21:13:28.877Z,3.40
2017-12-19T21:15:57.182Z,3.40
2017-12-19T21:18:24.674Z,3.40
2017-12-19T21:20:52.224Z,3.40
2017-12-19T21:23:19.744Z,3.40
2017-12-19T21:25:48.712Z,3.40
2017-12-19T21:28:16.252Z,3.40
2017-12-19T21:30:43.789Z,3.50
2017-12-19T21:33:11.296Z,3.40
2017-12-19T21:35:38.822Z,3.40
2017-12-19T21:38:06.345Z,3.50
2017-12-19T21:40:33.877Z,3.50
2017-12-19T21:43:01.398Z,3.40
2017-12-19T21:45:29.693Z,3.40
2017-12-19T21:47:57.240Z,3.40
2017-12-19T21:50:25.483Z,3.40
2017-12-19T21:52:52.993Z,3.40
2017-12-19T21:55:21.325Z,3.40
2017-12-19T21:57:48.826Z,3.40
2017-12-19T22:00:17.136Z,3.50
2017-12-19T22:02:44.615Z,3.50
2017-12-19T22:05:12.136Z,3.50
2017-12-19T22:07:40.417Z,3.50
2017-12-19T22:10:08.722Z,3.50
2017-12-19T22:12:36.239Z,3.50
2017-12-19T22:15:03.774Z,3.50
2017-12-19T22:17:31.293Z,3.50
2017-12-19T22:19:59.580Z,3.50
2017-12-19T22:22:27.102Z,3.50
2017-12-19T22:24:54.562Z,3.50
2017-12-19T22:27:22.085Z,3.50
2017-12-19T22:29:49.605Z,3.50
2017-12-19T22:32:17.129Z,3.50
2017-12-19T22:34:44.652Z,3.50
2017-12-19T22:37:12.954Z,3.50
2017-12-19T22:39:40.479Z,3.40
2017-12-19T22:42:08.034Z,3.40
2017-12-19T22:44:35.501Z,3.50
2017-12-19T22:47:03.026Z,3.40
2017-12-19T22:49:31.722Z,3.40
2017-12-19T22:51:59.209Z,3.40
2017-12-19T22:54:26.739Z,3.50
2017-12-19T22:56:54.288Z,3.50
2017-12-19T22:59:21.822Z,3.40
2017-12-19T23:01:49.374Z,3.40
2017-12-19T23:04:16.898Z,3.40
2017-12-19T23:06:46.393Z,3.40
2017-12-19T23:09:14.628Z,3.40
2017-12-19T23:11:42.162Z,3.40
2017-12-19T23:14:09.678Z,3.40
2017-12-19T23:16:37.226Z,3.40
2017-12-19T23:19:04.759Z,3.40
2017-12-19T23:21:32.292Z,3.40
2017-12-19T23:24:01.670Z,3.40
2017-12-19T23:26:29.195Z,3.40
2017-12-19T23:28:56.665Z,3.40
2017-12-19T23:31:24.181Z,3.40
2017-12-19T23:33:52.480Z,3.30
2017-12-19T23:36:20.767Z,3.40
2017-12-19T23:38:49.008Z,3.40
2017-12-19T23:41:16.526Z,3.40
2017-12-19T23:43:43.989Z,3.40
2017-12-19T23:46:12.229Z,3.30
2017-12-19T23:48:40.456Z,3.30
2017-12-19T23:51:07.929Z,3.30
2017-12-19T23:53:35.413Z,3.30
2017-12-19T23:56:02.878Z,3.30
2017-12-19T23:58:30.360Z,3.30
